sensor_id;sensor_type;location;lat;lon;timestamp;P1;P2;P0
20157;PMS5003;10239;56.820;24.416;2022-08-03T00:02:16;8.50;7.25;5.50
20157;PMS5003;10239;56.820;24.416;2022-08-03T00:04:44;5.25;5.25;5.00
20157;PMS5003;10239;56.820;24.416;2022-08-03T00:07:12;5.75;5.75;5.00
20157;PMS5003;10239;56.820;24.416;2022-08-03T00:09:40;7.50;7.50;6.00
20157;PMS5003;10239;56.820;24.416;2022-08-03T00:12:08;5.50;5.50;4.00
20157;PMS5003;10239;56.820;24.416;2022-08-03T00:14:36;5.75;5.75;4.75
20157;PMS5003;10239;56.820;24.416;2022-08-03T00:17:04;6.25;6.25;4.00
20157;PMS5003;10239;56.820;24.416;2022-08-03T00:19:31;5.00;5.00;5.00
20157;PMS5003;10239;56.820;24.416;2022-08-03T00:21:59;4.25;4.25;4.25
20157;PMS5003;10239;56.820;24.416;2022-08-03T00:24:27;4.75;4.75;3.75
20157;PMS5003;10239;56.820;24.416;2022-08-03T00:26:56;4.25;4.25;4.00
20157;PMS5003;10239;56.820;24.416;2022-08-03T00:29:24;5.00;5.00;4.25
20157;PMS5003;10239;56.820;24.416;2022-08-03T00:31:52;4.25;4.25;3.00
20157;PMS5003;10239;56.820;24.416;2022-08-03T00:34:26;3.50;3.50;3.00
20157;PMS5003;10239;56.820;24.416;2022-08-03T00:37:09;3.00;3.00;2.00
20157;PMS5003;10239;56.820;24.416;2022-08-03T00:39:37;3.75;3.75;3.00
20157;PMS5003;10239;56.820;24.416;2022-08-03T00:42:05;2.00;2.00;2.00
20157;PMS5003;10239;56.820;24.416;2022-08-03T00:44:38;3.25;3.25;3.00
20157;PMS5003;10239;56.820;24.416;2022-08-03T00:47:07;3.00;3.00;2.25
20157;PMS5003;10239;56.820;24.416;2022-08-03T00:49:36;1.00;1.00;1.00
20157;PMS5003;10239;56.820;24.416;2022-08-03T00:52:07;4.00;4.00;3.00
20157;PMS5003;10239;56.820;24.416;2022-08-03T00:54:36;1.00;1.00;0.25
20157;PMS5003;10239;56.820;24.416;2022-08-03T00:57:05;1.00;1.00;0.00
20157;PMS5003;10239;56.820;24.416;2022-08-03T00:59:34;4.00;4.00;3.00
20157;PMS5003;10239;56.820;24.416;2022-08-03T01:02:04;2.00;2.00;2.00
20157;PMS5003;10239;56.820;24.416;2022-08-03T01:04:32;3.00;3.00;2.50
20157;PMS5003;10239;56.820;24.416;2022-08-03T01:10:16;4.00;4.00;3.25
20157;PMS5003;10239;56.820;24.416;2022-08-03T01:13:29;2.00;2.00;2.00
20157;PMS5003;10239;56.820;24.416;2022-08-03T01:22:02;2.50;2.50;2.50
20157;PMS5003;10239;56.820;24.416;2022-08-03T01:30:34;2.00;2.00;1.75
20157;PMS5003;10239;56.820;24.416;2022-08-03T01:33:05;2.00;2.00;2.00
20157;PMS5003;10239;56.820;24.416;2022-08-03T01:35:49;1.25;1.25;0.75
20157;PMS5003;10239;56.820;24.416;2022-08-03T01:38:32;1.00;1.00;0.50
20157;PMS5003;10239;56.820;24.416;2022-08-03T01:41:04;1.75;1.75;1.50
20157;PMS5003;10239;56.820;24.416;2022-08-03T01:43:36;2.00;2.00;2.00
20157;PMS5003;10239;56.820;24.416;2022-08-03T01:46:29;2.00;2.00;2.00
20157;PMS5003;10239;56.820;24.416;2022-08-03T01:48:58;1.75;1.75;1.00
20157;PMS5003;10239;56.820;24.416;2022-08-03T01:51:36;1.50;1.50;1.00
20157;PMS5003;10239;56.820;24.416;2022-08-03T01:54:27;1.00;1.00;1.00
20157;PMS5003;10239;56.820;24.416;2022-08-03T01:56:57;1.50;1.50;1.25
20157;PMS5003;10239;56.820;24.416;2022-08-03T01:59:26;1.25;1.25;1.00
20157;PMS5003;10239;56.820;24.416;2022-08-03T02:01:56;2.25;2.25;1.75
20157;PMS5003;10239;56.820;24.416;2022-08-03T02:04:46;2.00;2.00;1.00
20157;PMS5003;10239;56.820;24.416;2022-08-03T02:07:14;1.75;1.75;1.50
20157;PMS5003;10239;56.820;24.416;2022-08-03T02:09:43;2.00;2.00;1.00
20157;PMS5003;10239;56.820;24.416;2022-08-03T02:12:13;1.75;1.75;1.00
20157;PMS5003;10239;56.820;24.416;2022-08-03T02:14:43;1.00;1.00;1.00
20157;PMS5003;10239;56.820;24.416;2022-08-03T02:17:13;1.75;1.75;1.75
20157;PMS5003;10239;56.820;24.416;2022-08-03T02:19:42;1.50;1.50;1.50
20157;PMS5003;10239;56.820;24.416;2022-08-03T02:22:10;2.00;2.00;1.50
20157;PMS5003;10239;56.820;24.416;2022-08-03T02:24:40;1.75;1.75;1.00
20157;PMS5003;10239;56.820;24.416;2022-08-03T02:27:27;1.00;1.00;1.00
20157;PMS5003;10239;56.820;24.416;2022-08-03T02:30:00;2.75;2.75;1.75
20157;PMS5003;10239;56.820;24.416;2022-08-03T02:32:33;1.50;1.50;1.00
20157;PMS5003;10239;56.820;24.416;2022-08-03T02:35:03;1.25;1.25;1.00
20157;PMS5003;10239;56.820;24.416;2022-08-03T02:37:37;1.00;1.00;1.00
20157;PMS5003;10239;56.820;24.416;2022-08-03T02:40:15;1.50;1.50;1.00
20157;PMS5003;10239;56.820;24.416;2022-08-03T02:42:46;2.00;2.00;2.00
20157;PMS5003;10239;56.820;24.416;2022-08-03T02:45:17;2.00;2.00;1.00
20157;PMS5003;10239;56.820;24.416;2022-08-03T02:47:47;2.00;2.00;1.00
20157;PMS5003;10239;56.820;24.416;2022-08-03T02:50:21;1.00;1.00;1.00
20157;PMS5003;10239;56.820;24.416;2022-08-03T02:52:50;1.25;1.25;1.00
20157;PMS5003;10239;56.820;24.416;2022-08-03T02:55:20;1.00;1.00;0.75
20157;PMS5003;10239;56.820;24.416;2022-08-03T02:57:49;1.50;1.50;1.00
20157;PMS5003;10239;56.820;24.416;2022-08-03T03:00:18;1.00;1.00;1.00
20157;PMS5003;10239;56.820;24.416;2022-08-03T03:02:57;1.00;1.00;1.00
20157;PMS5003;10239;56.820;24.416;2022-08-03T03:05:27;1.00;1.00;1.00
20157;PMS5003;10239;56.820;24.416;2022-08-03T03:08:17;1.00;1.00;1.00
20157;PMS5003;10239;56.820;24.416;2022-08-03T03:10:54;2.00;2.00;2.00
20157;PMS5003;10239;56.820;24.416;2022-08-03T03:13:23;1.00;1.00;1.00
20157;PMS5003;10239;56.820;24.416;2022-08-03T03:15:58;2.00;2.00;1.75
20157;PMS5003;10239;56.820;24.416;2022-08-03T03:18:30;1.00;1.00;1.00
20157;PMS5003;10239;56.820;24.416;2022-08-03T03:21:00;1.00;1.00;1.00
20157;PMS5003;10239;56.820;24.416;2022-08-03T03:23:29;2.00;2.00;1.00
20157;PMS5003;10239;56.820;24.416;2022-08-03T03:26:00;1.00;1.00;1.00
20157;PMS5003;10239;56.820;24.416;2022-08-03T03:28:29;1.75;1.75;1.50
20157;PMS5003;10239;56.820;24.416;2022-08-03T03:30:58;0.50;0.50;0.50
20157;PMS5003;10239;56.820;24.416;2022-08-03T03:33:27;1.00;1.00;1.00
20157;PMS5003;10239;56.820;24.416;2022-08-03T03:35:56;1.00;1.00;1.00
20157;PMS5003;10239;56.820;24.416;2022-08-03T03:38:24;1.00;1.00;1.00
20157;PMS5003;10239;56.820;24.416;2022-08-03T03:40:52;1.00;1.00;1.00
20157;PMS5003;10239;56.820;24.416;2022-08-03T03:43:21;1.00;1.00;1.00
20157;PMS5003;10239;56.820;24.416;2022-08-03T03:45:50;1.00;1.00;1.00
20157;PMS5003;10239;56.820;24.416;2022-08-03T03:48:19;1.00;1.00;1.00
20157;PMS5003;10239;56.820;24.416;2022-08-03T03:50:48;1.25;1.25;1.00
20157;PMS5003;10239;56.820;24.416;2022-08-03T03:53:16;1.00;1.00;1.00
20157;PMS5003;10239;56.820;24.416;2022-08-03T03:55:44;1.25;1.25;1.00
20157;PMS5003;10239;56.820;24.416;2022-08-03T03:58:28;1.50;1.50;1.00
20157;PMS5003;10239;56.820;24.416;2022-08-03T04:00:57;2.75;2.75;2.00
20157;PMS5003;10239;56.820;24.416;2022-08-03T04:03:25;1.00;1.00;1.00
20157;PMS5003;10239;56.820;24.416;2022-08-03T04:05:53;1.00;1.00;1.00
20157;PMS5003;10239;56.820;24.416;2022-08-03T04:08:40;1.00;1.00;1.00
20157;PMS5003;10239;56.820;24.416;2022-08-03T04:11:27;1.00;1.00;1.00
20157;PMS5003;10239;56.820;24.416;2022-08-03T04:16:58;0.75;0.75;0.25
20157;PMS5003;10239;56.820;24.416;2022-08-03T04:22:04;0.50;0.50;0.50
20157;PMS5003;10239;56.820;24.416;2022-08-03T04:24:50;1.00;1.00;1.00
20157;PMS5003;10239;56.820;24.416;2022-08-03T04:27:27;1.00;1.00;1.00
20157;PMS5003;10239;56.820;24.416;2022-08-03T04:30:01;0.75;0.75;0.75
20157;PMS5003;10239;56.820;24.416;2022-08-03T04:32:31;1.00;1.00;1.00
20157;PMS5003;10239;56.820;24.416;2022-08-03T04:35:01;0.75;0.75;0.75
20157;PMS5003;10239;56.820;24.416;2022-08-03T04:37:32;1.75;1.75;0.75
20157;PMS5003;10239;56.820;24.416;2022-08-03T04:40:07;1.00;1.00;1.00
20157;PMS5003;10239;56.820;24.416;2022-08-03T04:42:41;0.00;0.00;0.00
20157;PMS5003;10239;56.820;24.416;2022-08-03T04:45:14;0.75;0.75;0.00
20157;PMS5003;10239;56.820;24.416;2022-08-03T04:47:43;1.25;1.25;1.00
20157;PMS5003;10239;56.820;24.416;2022-08-03T04:50:11;0.00;0.00;0.00
20157;PMS5003;10239;56.820;24.416;2022-08-03T04:53:04;1.00;1.00;0.25
20157;PMS5003;10239;56.820;24.416;2022-08-03T04:55:33;1.00;1.00;1.00
20157;PMS5003;10239;56.820;24.416;2022-08-03T04:58:02;0.40;0.40;0.00
20157;PMS5003;10239;56.820;24.416;2022-08-03T05:00:30;0.00;0.00;0.00
20157;PMS5003;10239;56.820;24.416;2022-08-03T05:02:58;0.00;0.00;0.00
20157;PMS5003;10239;56.820;24.416;2022-08-03T05:05:26;0.40;0.40;0.20
20157;PMS5003;10239;56.820;24.416;2022-08-03T05:08:14;0.40;0.40;0.40
20157;PMS5003;10239;56.820;24.416;2022-08-03T05:10:46;0.50;0.50;0.25
20157;PMS5003;10239;56.820;24.416;2022-08-03T05:13:14;0.20;0.20;0.20
20157;PMS5003;10239;56.820;24.416;2022-08-03T05:15:42;1.00;1.00;1.00
20157;PMS5003;10239;56.820;24.416;2022-08-03T05:18:09;0.40;0.40;0.40
20157;PMS5003;10239;56.820;24.416;2022-08-03T05:20:40;1.00;1.00;1.00
20157;PMS5003;10239;56.820;24.416;2022-08-03T05:23:08;1.75;1.75;1.75
20157;PMS5003;10239;56.820;24.416;2022-08-03T05:25:35;0.20;0.20;0.20
20157;PMS5003;10239;56.820;24.416;2022-08-03T05:28:04;0.00;0.00;0.00
20157;PMS5003;10239;56.820;24.416;2022-08-03T05:30:32;0.25;0.25;0.00
20157;PMS5003;10239;56.820;24.416;2022-08-03T05:33:01;1.00;1.00;0.50
20157;PMS5003;10239;56.820;24.416;2022-08-03T05:35:30;0.75;0.75;0.25
20157;PMS5003;10239;56.820;24.416;2022-08-03T05:38:18;1.00;1.00;1.00
20157;PMS5003;10239;56.820;24.416;2022-08-03T05:40:55;1.00;1.00;0.75
20157;PMS5003;10239;56.820;24.416;2022-08-03T05:43:44;1.00;1.00;1.00
20157;PMS5003;10239;56.820;24.416;2022-08-03T05:46:11;0.50;0.50;0.00
20157;PMS5003;10239;56.820;24.416;2022-08-03T05:48:40;0.50;0.50;0.25
20157;PMS5003;10239;56.820;24.416;2022-08-03T05:51:08;1.00;1.00;0.25
20157;PMS5003;10239;56.820;24.416;2022-08-03T05:53:39;0.20;0.20;0.20
20157;PMS5003;10239;56.820;24.416;2022-08-03T05:56:08;0.20;0.20;0.00
20157;PMS5003;10239;56.820;24.416;2022-08-03T05:58:47;0.00;0.00;0.00
20157;PMS5003;10239;56.820;24.416;2022-08-03T06:01:15;1.00;1.00;0.60
20157;PMS5003;10239;56.820;24.416;2022-08-03T06:03:43;0.80;0.80;0.40
20157;PMS5003;10239;56.820;24.416;2022-08-03T06:06:12;0.20;0.20;0.20
20157;PMS5003;10239;56.820;24.416;2022-08-03T06:08:40;0.00;0.00;0.00
20157;PMS5003;10239;56.820;24.416;2022-08-03T06:11:09;0.00;0.00;0.00
20157;PMS5003;10239;56.820;24.416;2022-08-03T06:13:37;0.20;0.20;0.20
20157;PMS5003;10239;56.820;24.416;2022-08-03T06:16:06;1.00;1.00;1.00
20157;PMS5003;10239;56.820;24.416;2022-08-03T06:18:34;0.60;0.60;0.00
20157;PMS5003;10239;56.820;24.416;2022-08-03T06:21:02;0.20;0.20;0.00
20157;PMS5003;10239;56.820;24.416;2022-08-03T06:23:42;0.20;0.20;0.00
20157;PMS5003;10239;56.820;24.416;2022-08-03T06:26:23;0.40;0.40;0.00
20157;PMS5003;10239;56.820;24.416;2022-08-03T06:28:52;0.00;0.00;0.00
20157;PMS5003;10239;56.820;24.416;2022-08-03T06:31:24;1.00;1.00;0.00
20157;PMS5003;10239;56.820;24.416;2022-08-03T06:34:00;0.00;0.00;0.00
20157;PMS5003;10239;56.820;24.416;2022-08-03T06:36:51;0.00;0.00;0.00
20157;PMS5003;10239;56.820;24.416;2022-08-03T06:39:27;0.00;0.00;0.00
20157;PMS5003;10239;56.820;24.416;2022-08-03T06:41:54;0.00;0.00;0.00
20157;PMS5003;10239;56.820;24.416;2022-08-03T06:44:22;0.00;0.00;0.00
20157;PMS5003;10239;56.820;24.416;2022-08-03T06:46:49;0.00;0.00;0.00
20157;PMS5003;10239;56.820;24.416;2022-08-03T06:49:18;0.00;0.00;0.00
20157;PMS5003;10239;56.820;24.416;2022-08-03T06:51:46;0.00;0.00;0.00
20157;PMS5003;10239;56.820;24.416;2022-08-03T06:54:32;0.00;0.00;0.00
20157;PMS5003;10239;56.820;24.416;2022-08-03T06:57:01;0.00;0.00;0.00
20157;PMS5003;10239;56.820;24.416;2022-08-03T06:59:29;0.00;0.00;0.00
20157;PMS5003;10239;56.820;24.416;2022-08-03T07:02:17;0.00;0.00;0.00
20157;PMS5003;10239;56.820;24.416;2022-08-03T07:04:46;0.00;0.00;0.00
20157;PMS5003;10239;56.820;24.416;2022-08-03T07:07:14;0.00;0.00;0.00
20157;PMS5003;10239;56.820;24.416;2022-08-03T07:09:43;0.00;0.00;0.00
20157;PMS5003;10239;56.820;24.416;2022-08-03T07:12:25;0.00;0.00;0.00
20157;PMS5003;10239;56.820;24.416;2022-08-03T07:14:54;0.00;0.00;0.00
20157;PMS5003;10239;56.820;24.416;2022-08-03T07:17:31;0.00;0.00;0.00
20157;PMS5003;10239;56.820;24.416;2022-08-03T07:20:01;0.00;0.00;0.00
20157;PMS5003;10239;56.820;24.416;2022-08-03T07:22:31;0.40;0.40;0.00
20157;PMS5003;10239;56.820;24.416;2022-08-03T07:24:58;0.00;0.00;0.00
20157;PMS5003;10239;56.820;24.416;2022-08-03T07:27:26;0.00;0.00;0.00
20157;PMS5003;10239;56.820;24.416;2022-08-03T07:29:56;0.00;0.00;0.00
20157;PMS5003;10239;56.820;24.416;2022-08-03T07:32:24;0.00;0.00;0.00
20157;PMS5003;10239;56.820;24.416;2022-08-03T07:34:52;0.00;0.00;0.00
20157;PMS5003;10239;56.820;24.416;2022-08-03T07:37:26;0.00;0.00;0.00
20157;PMS5003;10239;56.820;24.416;2022-08-03T07:39:54;0.00;0.00;0.00
20157;PMS5003;10239;56.820;24.416;2022-08-03T07:42:22;0.00;0.00;0.00
20157;PMS5003;10239;56.820;24.416;2022-08-03T07:44:49;0.00;0.00;0.00
20157;PMS5003;10239;56.820;24.416;2022-08-03T07:47:18;0.00;0.00;0.00
20157;PMS5003;10239;56.820;24.416;2022-08-03T07:49:48;0.00;0.00;0.00
20157;PMS5003;10239;56.820;24.416;2022-08-03T07:52:16;0.00;0.00;0.00
20157;PMS5003;10239;56.820;24.416;2022-08-03T07:55:06;0.20;0.20;0.20
20157;PMS5003;10239;56.820;24.416;2022-08-03T07:57:35;0.00;0.00;0.00
20157;PMS5003;10239;56.820;24.416;2022-08-03T08:00:04;0.00;0.00;0.00
20157;PMS5003;10239;56.820;24.416;2022-08-03T08:02:40;0.00;0.00;0.00
20157;PMS5003;10239;56.820;24.416;2022-08-03T08:05:08;0.00;0.00;0.00
20157;PMS5003;10239;56.820;24.416;2022-08-03T08:07:37;0.00;0.00;0.00
20157;PMS5003;10239;56.820;24.416;2022-08-03T08:10:05;0.00;0.00;0.00
20157;PMS5003;10239;56.820;24.416;2022-08-03T08:12:39;0.00;0.00;0.00
20157;PMS5003;10239;56.820;24.416;2022-08-03T08:15:07;0.00;0.00;0.00
20157;PMS5003;10239;56.820;24.416;2022-08-03T08:17:52;0.00;0.00;0.00
20157;PMS5003;10239;56.820;24.416;2022-08-03T08:20:23;0.00;0.00;0.00
20157;PMS5003;10239;56.820;24.416;2022-08-03T08:22:56;0.00;0.00;0.00
20157;PMS5003;10239;56.820;24.416;2022-08-03T08:25:28;0.00;0.00;0.00
20157;PMS5003;10239;56.820;24.416;2022-08-03T08:27:57;0.00;0.00;0.00
20157;PMS5003;10239;56.820;24.416;2022-08-03T08:30:50;0.00;0.00;0.00
20157;PMS5003;10239;56.820;24.416;2022-08-03T08:33:18;0.00;0.00;0.00
20157;PMS5003;10239;56.820;24.416;2022-08-03T08:35:49;0.00;0.00;0.00
20157;PMS5003;10239;56.820;24.416;2022-08-03T08:38:19;0.00;0.00;0.00
20157;PMS5003;10239;56.820;24.416;2022-08-03T08:40:48;0.00;0.00;0.00
20157;PMS5003;10239;56.820;24.416;2022-08-03T08:43:16;0.00;0.00;0.00
20157;PMS5003;10239;56.820;24.416;2022-08-03T08:45:44;0.00;0.00;0.00
20157;PMS5003;10239;56.820;24.416;2022-08-03T08:48:21;0.00;0.00;0.00
20157;PMS5003;10239;56.820;24.416;2022-08-03T08:50:51;0.20;0.20;0.20
20157;PMS5003;10239;56.820;24.416;2022-08-03T08:53:26;0.00;0.00;0.00
20157;PMS5003;10239;56.820;24.416;2022-08-03T08:55:57;0.00;0.00;0.00
20157;PMS5003;10239;56.820;24.416;2022-08-03T08:58:41;0.00;0.00;0.00
20157;PMS5003;10239;56.820;24.416;2022-08-03T09:01:18;0.00;0.00;0.00
20157;PMS5003;10239;56.820;24.416;2022-08-03T09:03:47;0.00;0.00;0.00
20157;PMS5003;10239;56.820;24.416;2022-08-03T09:06:15;0.00;0.00;0.00
20157;PMS5003;10239;56.820;24.416;2022-08-03T09:08:43;0.00;0.00;0.00
20157;PMS5003;10239;56.820;24.416;2022-08-03T09:11:11;0.00;0.00;0.00
20157;PMS5003;10239;56.820;24.416;2022-08-03T09:13:40;0.00;0.00;0.00
20157;PMS5003;10239;56.820;24.416;2022-08-03T09:16:10;1.00;1.00;0.00
20157;PMS5003;10239;56.820;24.416;2022-08-03T09:18:39;0.00;0.00;0.00
20157;PMS5003;10239;56.820;24.416;2022-08-03T09:21:12;0.00;0.00;0.00
20157;PMS5003;10239;56.820;24.416;2022-08-03T09:23:58;0.00;0.00;0.00
20157;PMS5003;10239;56.820;24.416;2022-08-03T09:26:32;0.00;0.00;0.00
20157;PMS5003;10239;56.820;24.416;2022-08-03T09:29:05;0.00;0.00;0.00
20157;PMS5003;10239;56.820;24.416;2022-08-03T09:31:41;0.00;0.00;0.00
20157;PMS5003;10239;56.820;24.416;2022-08-03T09:34:11;0.00;0.00;0.00
20157;PMS5003;10239;56.820;24.416;2022-08-03T09:36:45;0.00;0.00;0.00
20157;PMS5003;10239;56.820;24.416;2022-08-03T09:39:21;0.20;0.20;0.20
20157;PMS5003;10239;56.820;24.416;2022-08-03T09:42:14;0.00;0.00;0.00
20157;PMS5003;10239;56.820;24.416;2022-08-03T09:44:44;0.00;0.00;0.00
20157;PMS5003;10239;56.820;24.416;2022-08-03T09:47:14;0.00;0.00;0.00
20157;PMS5003;10239;56.820;24.416;2022-08-03T09:49:58;0.00;0.00;0.00
20157;PMS5003;10239;56.820;24.416;2022-08-03T09:52:32;0.00;0.00;0.00
20157;PMS5003;10239;56.820;24.416;2022-08-03T09:55:14;0.00;0.00;0.00
20157;PMS5003;10239;56.820;24.416;2022-08-03T09:58:05;0.00;0.00;0.00
20157;PMS5003;10239;56.820;24.416;2022-08-03T10:03:21;0.00;0.00;0.00
20157;PMS5003;10239;56.820;24.416;2022-08-03T10:05:49;0.00;0.00;0.00
20157;PMS5003;10239;56.820;24.416;2022-08-03T10:08:24;0.00;0.00;0.00
20157;PMS5003;10239;56.820;24.416;2022-08-03T10:10:52;0.00;0.00;0.00
20157;PMS5003;10239;56.820;24.416;2022-08-03T10:13:20;0.00;0.00;0.00
20157;PMS5003;10239;56.820;24.416;2022-08-03T10:15:49;0.00;0.00;0.00
20157;PMS5003;10239;56.820;24.416;2022-08-03T10:18:37;0.00;0.00;0.00
20157;PMS5003;10239;56.820;24.416;2022-08-03T10:21:07;0.00;0.00;0.00
20157;PMS5003;10239;56.820;24.416;2022-08-03T10:23:36;0.00;0.00;0.00
20157;PMS5003;10239;56.820;24.416;2022-08-03T10:26:07;0.00;0.00;0.00
20157;PMS5003;10239;56.820;24.416;2022-08-03T10:28:40;0.00;0.00;0.00
20157;PMS5003;10239;56.820;24.416;2022-08-03T10:31:13;0.00;0.00;0.00
20157;PMS5003;10239;56.820;24.416;2022-08-03T10:33:43;0.00;0.00;0.00
20157;PMS5003;10239;56.820;24.416;2022-08-03T10:36:18;0.00;0.00;0.00
20157;PMS5003;10239;56.820;24.416;2022-08-03T10:38:50;0.00;0.00;0.00
20157;PMS5003;10239;56.820;24.416;2022-08-03T10:41:19;0.00;0.00;0.00
20157;PMS5003;10239;56.820;24.416;2022-08-03T10:44:04;0.00;0.00;0.00
20157;PMS5003;10239;56.820;24.416;2022-08-03T10:46:40;0.00;0.00;0.00
20157;PMS5003;10239;56.820;24.416;2022-08-03T10:49:14;0.00;0.00;0.00
20157;PMS5003;10239;56.820;24.416;2022-08-03T10:52:00;0.00;0.00;0.00
20157;PMS5003;10239;56.820;24.416;2022-08-03T10:54:40;0.00;0.00;0.00
20157;PMS5003;10239;56.820;24.416;2022-08-03T10:57:57;0.00;0.00;0.00
20157;PMS5003;10239;56.820;24.416;2022-08-03T11:00:25;0.00;0.00;0.00
20157;PMS5003;10239;56.820;24.416;2022-08-03T11:03:03;0.00;0.00;0.00
20157;PMS5003;10239;56.820;24.416;2022-08-03T11:05:33;0.00;0.00;0.00
20157;PMS5003;10239;56.820;24.416;2022-08-03T11:08:22;0.00;0.00;0.00
20157;PMS5003;10239;56.820;24.416;2022-08-03T11:13:56;0.00;0.00;0.00
20157;PMS5003;10239;56.820;24.416;2022-08-03T11:16:31;0.00;0.00;0.00
20157;PMS5003;10239;56.820;24.416;2022-08-03T11:19:08;0.00;0.00;0.00
20157;PMS5003;10239;56.820;24.416;2022-08-03T11:27:29;0.00;0.00;0.00
20157;PMS5003;10239;56.820;24.416;2022-08-03T11:29:58;0.00;0.00;0.00
20157;PMS5003;10239;56.820;24.416;2022-08-03T11:35:18;0.20;0.20;0.00
20157;PMS5003;10239;56.820;24.416;2022-08-03T11:40:43;0.00;0.00;0.00
20157;PMS5003;10239;56.820;24.416;2022-08-03T11:46:01;0.00;0.00;0.00
20157;PMS5003;10239;56.820;24.416;2022-08-03T11:48:34;0.00;0.00;0.00
20157;PMS5003;10239;56.820;24.416;2022-08-03T11:51:06;0.00;0.00;0.00
20157;PMS5003;10239;56.820;24.416;2022-08-03T11:53:45;0.00;0.00;0.00
20157;PMS5003;10239;56.820;24.416;2022-08-03T11:56:13;0.00;0.00;0.00
20157;PMS5003;10239;56.820;24.416;2022-08-03T11:58:47;0.00;0.00;0.00
20157;PMS5003;10239;56.820;24.416;2022-08-03T12:01:36;0.00;0.00;0.00
20157;PMS5003;10239;56.820;24.416;2022-08-03T12:04:04;0.20;0.20;0.20
20157;PMS5003;10239;56.820;24.416;2022-08-03T12:06:32;0.00;0.00;0.00
20157;PMS5003;10239;56.820;24.416;2022-08-03T12:09:20;1.00;1.00;1.00
20157;PMS5003;10239;56.820;24.416;2022-08-03T12:11:48;0.00;0.00;0.00
20157;PMS5003;10239;56.820;24.416;2022-08-03T12:14:26;0.00;0.00;0.00
20157;PMS5003;10239;56.820;24.416;2022-08-03T12:17:16;0.00;0.00;0.00
20157;PMS5003;10239;56.820;24.416;2022-08-03T12:19:45;0.00;0.00;0.00
20157;PMS5003;10239;56.820;24.416;2022-08-03T12:22:13;0.00;0.00;0.00
20157;PMS5003;10239;56.820;24.416;2022-08-03T12:24:43;0.00;0.00;0.00
20157;PMS5003;10239;56.820;24.416;2022-08-03T12:27:21;0.00;0.00;0.00
20157;PMS5003;10239;56.820;24.416;2022-08-03T12:29:55;0.20;0.20;0.00
20157;PMS5003;10239;56.820;24.416;2022-08-03T12:32:25;0.00;0.00;0.00
20157;PMS5003;10239;56.820;24.416;2022-08-03T12:34:54;0.00;0.00;0.00
20157;PMS5003;10239;56.820;24.416;2022-08-03T12:37:27;0.00;0.00;0.00
20157;PMS5003;10239;56.820;24.416;2022-08-03T12:39:57;0.00;0.00;0.00
20157;PMS5003;10239;56.820;24.416;2022-08-03T12:42:36;0.00;0.00;0.00
20157;PMS5003;10239;56.820;24.416;2022-08-03T12:45:20;0.00;0.00;0.00
20157;PMS5003;10239;56.820;24.416;2022-08-03T12:47:52;0.00;0.00;0.00
20157;PMS5003;10239;56.820;24.416;2022-08-03T12:50:38;0.00;0.00;0.00
20157;PMS5003;10239;56.820;24.416;2022-08-03T12:53:07;0.00;0.00;0.00
20157;PMS5003;10239;56.820;24.416;2022-08-03T12:55:36;0.00;0.00;0.00
20157;PMS5003;10239;56.820;24.416;2022-08-03T12:58:29;0.00;0.00;0.00
20157;PMS5003;10239;56.820;24.416;2022-08-03T13:01:04;0.80;0.80;0.80
20157;PMS5003;10239;56.820;24.416;2022-08-03T13:03:39;0.00;0.00;0.00
20157;PMS5003;10239;56.820;24.416;2022-08-03T13:06:14;0.00;0.00;0.00
20157;PMS5003;10239;56.820;24.416;2022-08-03T13:08:44;0.00;0.00;0.00
20157;PMS5003;10239;56.820;24.416;2022-08-03T13:11:20;0.00;0.00;0.00
20157;PMS5003;10239;56.820;24.416;2022-08-03T13:14:08;0.00;0.00;0.00
20157;PMS5003;10239;56.820;24.416;2022-08-03T13:16:45;0.00;0.00;0.00
20157;PMS5003;10239;56.820;24.416;2022-08-03T13:19:13;0.00;0.00;0.00
20157;PMS5003;10239;56.820;24.416;2022-08-03T13:21:42;0.00;0.00;0.00
20157;PMS5003;10239;56.820;24.416;2022-08-03T13:24:29;0.00;0.00;0.00
20157;PMS5003;10239;56.820;24.416;2022-08-03T13:26:57;0.00;0.00;0.00
20157;PMS5003;10239;56.820;24.416;2022-08-03T13:29:46;0.00;0.00;0.00
20157;PMS5003;10239;56.820;24.416;2022-08-03T13:32:13;0.80;0.80;0.00
20157;PMS5003;10239;56.820;24.416;2022-08-03T13:34:41;0.00;0.00;0.00
20157;PMS5003;10239;56.820;24.416;2022-08-03T13:37:08;0.00;0.00;0.00
20157;PMS5003;10239;56.820;24.416;2022-08-03T13:39:38;0.00;0.00;0.00
20157;PMS5003;10239;56.820;24.416;2022-08-03T13:42:25;0.00;0.00;0.00
20157;PMS5003;10239;56.820;24.416;2022-08-03T13:44:54;0.00;0.00;0.00
20157;PMS5003;10239;56.820;24.416;2022-08-03T13:47:22;0.00;0.00;0.00
20157;PMS5003;10239;56.820;24.416;2022-08-03T13:49:49;0.20;0.20;0.00
20157;PMS5003;10239;56.820;24.416;2022-08-03T13:52:31;0.00;0.00;0.00
20157;PMS5003;10239;56.820;24.416;2022-08-03T13:55:00;0.00;0.00;0.00
20157;PMS5003;10239;56.820;24.416;2022-08-03T13:57:31;0.00;0.00;0.00
20157;PMS5003;10239;56.820;24.416;2022-08-03T14:00:20;0.00;0.00;0.00
20157;PMS5003;10239;56.820;24.416;2022-08-03T14:02:56;0.00;0.00;0.00
20157;PMS5003;10239;56.820;24.416;2022-08-03T14:05:34;0.00;0.00;0.00
20157;PMS5003;10239;56.820;24.416;2022-08-03T14:08:04;0.00;0.00;0.00
20157;PMS5003;10239;56.820;24.416;2022-08-03T14:10:34;0.00;0.00;0.00
20157;PMS5003;10239;56.820;24.416;2022-08-03T14:13:04;0.00;0.00;0.00
20157;PMS5003;10239;56.820;24.416;2022-08-03T14:15:31;0.00;0.00;0.00
20157;PMS5003;10239;56.820;24.416;2022-08-03T14:18:04;0.00;0.00;0.00
20157;PMS5003;10239;56.820;24.416;2022-08-03T14:20:42;0.00;0.00;0.00
20157;PMS5003;10239;56.820;24.416;2022-08-03T14:23:15;0.00;0.00;0.00
20157;PMS5003;10239;56.820;24.416;2022-08-03T14:25:43;0.00;0.00;0.00
20157;PMS5003;10239;56.820;24.416;2022-08-03T14:28:19;0.00;0.00;0.00
20157;PMS5003;10239;56.820;24.416;2022-08-03T14:30:51;0.00;0.00;0.00
20157;PMS5003;10239;56.820;24.416;2022-08-03T14:33:21;0.00;0.00;0.00
20157;PMS5003;10239;56.820;24.416;2022-08-03T14:35:50;0.00;0.00;0.00
20157;PMS5003;10239;56.820;24.416;2022-08-03T14:38:18;0.00;0.00;0.00
20157;PMS5003;10239;56.820;24.416;2022-08-03T14:40:46;0.00;0.00;0.00
20157;PMS5003;10239;56.820;24.416;2022-08-03T14:43:14;0.00;0.00;0.00
20157;PMS5003;10239;56.820;24.416;2022-08-03T14:45:49;0.00;0.00;0.00
20157;PMS5003;10239;56.820;24.416;2022-08-03T14:48:19;0.00;0.00;0.00
20157;PMS5003;10239;56.820;24.416;2022-08-03T14:51:08;0.00;0.00;0.00
20157;PMS5003;10239;56.820;24.416;2022-08-03T14:53:36;0.00;0.00;0.00
20157;PMS5003;10239;56.820;24.416;2022-08-03T14:56:03;0.00;0.00;0.00
20157;PMS5003;10239;56.820;24.416;2022-08-03T14:58:36;0.00;0.00;0.00
20157;PMS5003;10239;56.820;24.416;2022-08-03T15:01:04;0.00;0.00;0.00
20157;PMS5003;10239;56.820;24.416;2022-08-03T15:03:53;0.00;0.00;0.00
20157;PMS5003;10239;56.820;24.416;2022-08-03T15:06:20;0.00;0.00;0.00
20157;PMS5003;10239;56.820;24.416;2022-08-03T15:08:47;0.00;0.00;0.00
20157;PMS5003;10239;56.820;24.416;2022-08-03T15:11:35;0.00;0.00;0.00
20157;PMS5003;10239;56.820;24.416;2022-08-03T15:14:03;0.00;0.00;0.00
20157;PMS5003;10239;56.820;24.416;2022-08-03T15:16:37;0.00;0.00;0.00
20157;PMS5003;10239;56.820;24.416;2022-08-03T15:19:05;0.00;0.00;0.00
20157;PMS5003;10239;56.820;24.416;2022-08-03T15:21:52;0.00;0.00;0.00
20157;PMS5003;10239;56.820;24.416;2022-08-03T15:24:20;0.00;0.00;0.00